Time;durP1;ratioP1;P1;durP2;ratioP2;P2;SDS_P1;SDS_P2;PMS_P1;PMS_P2;Temp;Humidity;BMP_temperature;BMP_pressure;BME280_temperature;BME280_humidity;BME280_pressure;Samples;Min_cycle;Max_cycle;Signal;HPM_P1;HPM_P2
2022/07/30 00:01:30;;;;;;;1.20;1.10;;;22.60;75.10;23.30;96518.00;;;;5080332;28;20249;-85
2022/07/30 00:03:57;;;;;;;1.60;1.20;;;22.60;75.10;23.30;96521.00;;;;5086259;28;20198;-84
2022/07/30 00:06:24;;;;;;;1.43;1.30;;;22.60;75.00;23.30;96516.00;;;;5081725;28;20253;-84
2022/07/30 00:08:51;;;;;;;1.40;1.30;;;22.60;75.10;23.30;96501.00;;;;5072832;28;20220;-85
2022/07/30 00:11:20;;;;;;;2.30;1.40;;;22.60;75.00;23.20;96496.00;;;;5072574;28;20188;-84
2022/07/30 00:13:48;;;;;;;2.10;1.27;;;22.60;75.10;23.20;96489.00;;;;5077630;28;20217;-84
2022/07/30 00:16:16;;;;;;;1.93;0.90;;;22.60;75.00;23.20;96493.00;;;;5087206;28;20195;-85
2022/07/30 00:18:44;;;;;;;1.20;1.20;;;22.60;75.00;23.20;96485.00;;;;5074556;28;20281;-85
2022/07/30 00:21:11;;;;;;;1.80;1.13;;;22.60;74.80;23.20;96491.00;;;;5081151;28;20637;-85
2022/07/30 00:23:38;;;;;;;1.27;1.17;;;22.60;74.80;23.20;96500.00;;;;5083324;28;20203;-86
2022/07/30 00:26:05;;;;;;;1.10;1.10;;;22.50;74.80;23.20;96499.00;;;;5077262;28;20670;-84
2022/07/30 00:28:33;;;;;;;1.30;1.27;;;22.50;74.90;23.20;96491.00;;;;5080313;28;20219;-83
2022/07/30 00:31:01;;;;;;;1.20;1.10;;;22.50;75.00;23.20;96493.00;;;;5076740;28;20199;-85
2022/07/30 00:33:29;;;;;;;1.10;1.10;;;22.50;74.90;23.20;96492.00;;;;5083841;28;20354;-84
2022/07/30 00:35:56;;;;;;;1.23;1.13;;;22.50;74.90;23.20;96494.00;;;;5071646;28;20249;-85
2022/07/30 00:38:24;;;;;;;1.10;1.10;;;22.50;75.00;23.20;96490.00;;;;5079670;28;20257;-85
2022/07/30 00:40:51;;;;;;;1.10;1.03;;;22.50;75.10;23.20;96489.00;;;;5068787;22;20624;-85
2022/07/30 00:43:19;;;;;;;0.87;0.87;;;22.50;75.00;23.20;96497.00;;;;5053205;28;20238;-85
2022/07/30 00:45:47;;;;;;;1.00;1.00;;;22.50;75.00;23.20;96492.00;;;;5054326;28;20216;-85
2022/07/30 00:48:16;;;;;;;1.03;1.03;;;22.50;75.10;23.20;96496.00;;;;5052675;28;20216;-85
2022/07/30 00:50:46;;;;;;;1.00;1.00;;;22.50;75.00;23.20;96484.00;;;;5040398;28;20196;-84
2022/07/30 00:53:13;;;;;;;1.33;1.23;;;22.50;74.90;23.20;96493.00;;;;5069664;28;20257;-84
2022/07/30 00:55:40;;;;;;;0.97;0.97;;;22.50;74.90;23.10;96493.00;;;;5051647;28;20193;-85
2022/07/30 00:58:08;;;;;;;1.27;1.20;;;22.50;75.00;23.10;96493.00;;;;5047660;28;20641;-84
2022/07/30 01:00:35;;;;;;;1.10;1.00;;;22.50;75.00;23.20;96497.00;;;;5059388;28;20250;-85
2022/07/30 01:03:03;;;;;;;1.17;1.13;;;22.50;75.10;23.10;96488.00;;;;5073998;28;20196;-85
2022/07/30 01:05:30;;;;;;;0.93;0.93;;;22.50;75.70;23.10;96489.00;;;;5042827;28;20289;-85
2022/07/30 01:07:59;;;;;;;1.17;1.17;;;22.50;75.00;23.10;96489.00;;;;5052824;28;20312;-84
2022/07/30 01:10:26;;;;;;;1.30;1.20;;;22.50;74.90;23.10;96489.00;;;;5059512;28;20234;-85
2022/07/30 01:12:54;;;;;;;1.03;1.03;;;22.50;74.80;23.10;96487.00;;;;5055831;28;20197;-84
2022/07/30 01:15:22;;;;;;;1.20;1.20;;;22.50;74.90;23.10;96479.00;;;;5046705;28;20203;-84
2022/07/30 01:17:53;;;;;;;1.03;1.03;;;22.50;75.10;23.10;96483.00;;;;5048240;28;20235;-84
2022/07/30 01:20:28;;;;;;;1.00;1.00;;;22.50;75.10;23.10;96474.00;;;;5042575;28;20207;-84
2022/07/30 01:23:08;;;;;;;1.20;1.10;;;22.50;75.20;23.10;96479.00;;;;5041225;28;20238;-84
2022/07/30 01:25:55;;;;;;;0.90;0.90;;;22.50;75.10;23.10;96478.00;;;;5051058;28;20288;-84
2022/07/30 01:28:28;;;;;;;2.13;0.93;;;22.50;75.20;23.10;96487.00;;;;5034953;28;20689;-85
2022/07/30 01:30:58;;;;;;;0.97;0.93;;;22.50;75.10;23.10;96479.00;;;;5054027;28;20600;-84
2022/07/30 01:33:27;;;;;;;0.80;0.80;;;22.40;75.00;23.10;96485.00;;;;5059173;28;20192;-84
2022/07/30 01:35:58;;;;;;;1.20;1.10;;;22.40;75.10;23.10;96474.00;;;;5055970;28;20196;-84
2022/07/30 01:38:30;;;;;;;1.07;1.03;;;22.40;75.10;23.10;96468.00;;;;5055856;28;20220;-84
2022/07/30 01:41:00;;;;;;;1.03;1.03;;;22.40;75.10;23.10;96466.00;;;;5064316;28;20207;-85
2022/07/30 01:43:29;;;;;;;1.17;1.07;;;22.40;75.10;23.10;96471.00;;;;5041192;28;20208;-85
2022/07/30 01:45:59;;;;;;;1.37;1.03;;;22.40;75.20;23.10;96476.00;;;;5054939;28;20279;-85
2022/07/30 01:48:29;;;;;;;2.20;1.20;;;22.40;75.30;23.10;96473.00;;;;5055346;28;20228;-85
2022/07/30 01:51:02;;;;;;;1.13;0.93;;;22.40;75.30;23.10;96474.00;;;;5042842;28;20717;-85
2022/07/30 01:53:36;;;;;;;1.40;1.30;;;22.40;75.40;23.10;96469.00;;;;5052097;28;20192;-85
2022/07/30 01:56:08;;;;;;;1.10;1.00;;;22.40;76.20;23.10;96474.00;;;;5042821;28;20631;-85
2022/07/30 01:58:38;;;;;;;0.80;0.80;;;22.40;75.40;23.10;96473.00;;;;5060869;28;20228;-85
2022/07/30 02:01:06;;;;;;;0.90;0.87;;;22.40;75.30;23.10;96473.00;;;;5054127;28;20620;-85
2022/07/30 02:03:34;;;;;;;1.50;1.33;;;22.40;75.40;23.10;96474.00;;;;5050209;28;20836;-85
2022/07/30 02:06:08;;;;;;;1.40;1.30;;;22.40;75.50;23.10;96478.00;;;;5074727;28;20241;-85
2022/07/30 02:08:41;;;;;;;1.17;1.07;;;22.40;75.60;23.10;96468.00;;;;5055898;28;20224;-86
2022/07/30 02:12:27;;;;;;;2.00;1.10;;;22.40;75.80;23.10;96466.00;;;;5044039;28;20647;-85
2022/07/30 02:14:07;;;;;;;1.60;1.50;;;22.40;75.80;23.10;96466.00;;;;5059017;28;20261;-85
2022/07/30 02:16:40;;;;;;;1.40;1.13;;;22.40;75.80;23.10;96470.00;;;;5052045;28;20200;-85
2022/07/30 02:19:14;;;;;;;1.33;1.00;;;22.40;75.90;23.10;96462.00;;;;5047629;28;20216;-85
2022/07/30 02:21:47;;;;;;;1.20;1.10;;;22.40;75.70;23.10;96462.00;;;;5045105;28;20562;-85
2022/07/30 02:24:21;;;;;;;0.90;0.90;;;22.40;75.60;23.10;96468.00;;;;5048416;28;20242;-85
2022/07/30 02:26:57;;;;;;;1.10;1.00;;;22.40;75.50;23.10;96461.00;;;;5074777;28;20184;-85
2022/07/30 02:29:25;;;;;;;1.00;1.00;;;22.40;75.50;23.10;96475.00;;;;5068384;28;20221;-85
2022/07/30 02:31:56;;;;;;;1.00;1.00;;;22.40;75.30;23.00;96474.00;;;;5056194;28;20201;-85
2022/07/30 02:34:25;;;;;;;1.00;1.00;;;22.40;75.50;23.00;96477.00;;;;5054755;28;20664;-85
2022/07/30 02:36:54;;;;;;;1.63;1.10;;;22.40;75.50;23.00;96471.00;;;;5046394;28;20189;-85
2022/07/30 02:39:22;;;;;;;1.10;1.10;;;22.40;75.50;23.00;96467.00;;;;5051790;28;20218;-85
2022/07/30 02:41:56;;;;;;;2.30;1.10;;;22.30;75.40;23.00;96459.00;;;;5060829;28;20619;-85
2022/07/30 02:44:27;;;;;;;1.00;1.00;;;22.30;75.50;23.00;96462.00;;;;5059798;28;20215;-85
2022/07/30 02:46:58;;;;;;;0.90;0.90;;;22.30;75.40;23.00;96460.00;;;;5055760;28;20197;-85
2022/07/30 02:49:29;;;;;;;1.83;1.13;;;22.30;75.30;23.00;96459.00;;;;5044123;28;20232;-85
2022/07/30 02:51:58;;;;;;;1.60;1.27;;;22.30;75.00;23.00;96463.00;;;;5058434;28;20230;-86
2022/07/30 02:54:27;;;;;;;1.37;1.27;;;22.30;75.00;23.00;96454.00;;;;5062931;28;20196;-85
2022/07/30 02:56:59;;;;;;;1.43;1.33;;;22.30;75.10;22.90;96452.00;;;;5074250;28;20553;-84
2022/07/30 02:59:28;;;;;;;1.57;1.00;;;22.30;75.10;22.90;96465.00;;;;5061669;28;20224;-85
2022/07/30 03:01:57;;;;;;;0.87;0.87;;;22.20;74.90;22.90;96473.00;;;;5050573;28;20276;-85
2022/07/30 03:04:28;;;;;;;2.00;1.10;;;22.20;74.90;22.90;96473.00;;;;5042638;28;20193;-85
2022/07/30 03:06:56;;;;;;;1.00;1.00;;;22.20;75.00;22.90;96466.00;;;;5041728;28;20667;-85
2022/07/30 03:09:23;;;;;;;1.50;1.40;;;22.20;75.10;22.90;96464.00;;;;5050029;28;20759;-85
2022/07/30 03:11:53;;;;;;;0.90;0.90;;;22.20;75.20;22.90;96463.00;;;;5045787;28;20196;-85
2022/07/30 03:14:22;;;;;;;0.90;0.90;;;22.20;75.20;22.90;96467.00;;;;5045311;28;20637;-85
2022/07/30 03:16:56;;;;;;;1.00;1.00;;;22.20;75.00;22.80;96471.00;;;;5070682;28;20272;-85
2022/07/30 03:19:27;;;;;;;1.37;1.20;;;22.20;74.70;22.80;96474.00;;;;5068890;28;20677;-85
2022/07/30 03:21:58;;;;;;;1.50;1.40;;;22.20;74.80;22.80;96466.00;;;;5060856;28;20253;-84
2022/07/30 03:24:30;;;;;;;0.97;0.97;;;22.20;74.90;22.80;96473.00;;;;5040521;28;20252;-85
2022/07/30 03:27:02;;;;;;;2.00;1.30;;;22.20;74.80;22.80;96472.00;;;;5045454;28;20220;-83
2022/07/30 03:29:32;;;;;;;1.27;1.20;;;22.10;74.70;22.80;96459.00;;;;5050318;28;20227;-83
2022/07/30 03:32:01;;;;;;;1.23;1.20;;;22.10;74.70;22.80;96463.00;;;;5057887;28;20189;-84
2022/07/30 03:34:29;;;;;;;1.10;1.10;;;22.10;74.50;22.70;96472.00;;;;5067752;28;20551;-84
2022/07/30 03:36:57;;;;;;;1.17;1.10;;;22.10;74.50;22.80;96470.00;;;;5068887;28;20208;-83
2022/07/30 03:39:26;;;;;;;1.40;1.30;;;22.10;74.50;22.70;96466.00;;;;5051743;28;20596;-84
2022/07/30 03:41:55;;;;;;;1.93;1.30;;;22.10;74.50;22.70;96475.00;;;;5049521;28;20193;-83
2022/07/30 03:44:23;;;;;;;1.43;1.37;;;22.10;75.30;22.70;96473.00;;;;5048780;28;20245;-84
2022/07/30 03:46:54;;;;;;;1.30;1.20;;;22.10;74.60;22.70;96466.00;;;;5052812;28;20198;-84
2022/07/30 03:49:23;;;;;;;1.60;1.50;;;22.10;74.70;22.70;96468.00;;;;5052741;28;20316;-84
2022/07/30 03:51:53;;;;;;;1.63;1.53;;;22.10;74.70;22.70;96471.00;;;;5066765;28;20274;-84
2022/07/30 03:54:21;;;;;;;2.13;1.70;;;22.00;74.50;22.70;96480.00;;;;5052883;28;20296;-84
2022/07/30 03:56:49;;;;;;;2.03;1.50;;;22.00;74.40;22.60;96474.00;;;;5067859;28;20238;-83
2022/07/30 03:59:17;;;;;;;1.40;1.30;;;22.00;74.40;22.60;96477.00;;;;5054837;28;20216;-84
2022/07/30 04:01:44;;;;;;;1.60;1.50;;;22.00;74.50;22.60;96484.00;;;;5043633;28;20246;-84
2022/07/30 04:04:12;;;;;;;1.67;1.57;;;22.00;74.60;22.60;96476.00;;;;5054538;28;20261;-84
2022/07/30 04:06:41;;;;;;;1.57;1.47;;;22.00;74.40;22.60;96480.00;;;;5051699;28;20192;-85
2022/07/30 04:09:11;;;;;;;2.90;1.40;;;21.90;74.30;22.60;96483.00;;;;5036138;28;20319;-85
2022/07/30 04:11:38;;;;;;;2.37;1.50;;;21.90;74.50;22.60;96486.00;;;;5052800;28;20239;-85
2022/07/30 04:14:06;;;;;;;1.57;1.47;;;21.90;74.60;22.60;96489.00;;;;5066290;28;20273;-85
2022/07/30 04:16:42;;;;;;;1.80;1.43;;;21.90;74.70;22.60;96494.00;;;;5052104;28;20216;-85
2022/07/30 04:19:16;;;;;;;1.70;1.60;;;21.90;74.70;22.50;96491.00;;;;5053948;28;20631;-84
2022/07/30 04:21:47;;;;;;;1.50;1.40;;;21.90;74.70;22.50;96496.00;;;;5071944;28;20191;-84
2022/07/30 04:24:16;;;;;;;1.50;1.40;;;21.90;74.60;22.50;96496.00;;;;5052010;28;20276;-84
2022/07/30 04:26:46;;;;;;;1.70;1.60;;;21.90;74.70;22.50;96496.00;;;;5052148;28;20282;-85
2022/07/30 04:29:13;;;;;;;1.67;1.57;;;21.80;74.60;22.50;96505.00;;;;5052150;28;20699;-84
2022/07/30 04:31:41;;;;;;;1.90;1.80;;;21.80;74.60;22.50;96505.00;;;;5043824;28;20193;-84
2022/07/30 04:34:14;;;;;;;1.47;1.37;;;21.80;74.70;22.40;96498.00;;;;5058884;28;20603;-84
2022/07/30 04:36:43;;;;;;;1.83;1.47;;;21.80;74.70;22.40;96503.00;;;;5047252;28;20209;-84
2022/07/30 04:39:10;;;;;;;2.07;1.83;;;21.80;74.70;22.40;96500.00;;;;5059075;28;20243;-84
2022/07/30 04:41:39;;;;;;;1.80;1.70;;;21.80;74.70;22.30;96501.00;;;;5051860;28;20201;-83
2022/07/30 04:44:06;;;;;;;1.93;1.83;;;21.80;74.80;22.30;96506.00;;;;5052713;28;20266;-84
2022/07/30 04:46:33;;;;;;;1.70;1.60;;;21.70;74.90;22.30;96511.00;;;;5035955;28;20236;-85
2022/07/30 04:49:00;;;;;;;1.93;1.50;;;21.70;74.90;22.30;96521.00;;;;5032551;28;20229;-84
2022/07/30 04:51:34;;;;;;;2.03;1.50;;;21.70;75.00;22.30;96522.00;;;;5041690;28;20231;-85
2022/07/30 04:54:05;;;;;;;1.80;1.70;;;21.70;75.10;22.30;96522.00;;;;5038889;28;20669;-84
2022/07/30 04:56:36;;;;;;;2.67;1.47;;;21.70;75.10;22.30;96523.00;;;;5060652;28;20667;-84
2022/07/30 04:59:04;;;;;;;1.70;1.60;;;21.70;75.20;22.20;96524.00;;;;5052605;28;20579;-84
2022/07/30 05:01:36;;;;;;;1.63;1.53;;;21.60;75.10;22.20;96524.00;;;;5051831;28;20211;-84
2022/07/30 05:04:06;;;;;;;2.23;1.30;;;21.60;75.20;22.20;96525.00;;;;5053663;28;20549;-84
2022/07/30 05:06:38;;;;;;;1.97;1.80;;;21.60;75.20;22.20;96528.00;;;;5062421;28;20206;-84
2022/07/30 05:09:06;;;;;;;1.67;1.57;;;21.60;75.40;22.20;96523.00;;;;5062539;28;20622;-84
2022/07/30 05:11:33;;;;;;;2.07;1.77;;;21.60;75.50;22.30;96530.00;;;;5051764;28;20641;-84
2022/07/30 05:14:01;;;;;;;2.17;1.97;;;21.60;75.60;22.30;96528.00;;;;5050900;28;20711;-84
2022/07/30 05:16:29;;;;;;;2.13;1.87;;;21.60;75.70;22.30;96536.00;;;;5031827;28;20269;-84
2022/07/30 05:18:56;;;;;;;1.43;1.40;;;21.70;75.80;22.30;96527.00;;;;5044476;28;20212;-84
2022/07/30 05:21:23;;;;;;;5.03;1.93;;;21.70;75.90;22.40;96538.00;;;;5051813;28;20204;-84
2022/07/30 05:23:52;;;;;;;1.80;1.70;;;21.70;75.90;22.40;96531.00;;;;5051373;28;20254;-84
2022/07/30 05:26:20;;;;;;;2.33;1.73;;;21.70;76.00;22.40;96540.00;;;;5060609;28;20200;-84
2022/07/30 05:28:48;;;;;;;1.90;1.80;;;21.70;76.10;22.40;96542.00;;;;5051636;28;20277;-85
2022/07/30 05:31:15;;;;;;;2.13;1.77;;;21.80;76.20;22.50;96547.00;;;;5044748;28;20662;-84
2022/07/30 05:33:42;;;;;;;2.10;2.00;;;21.80;76.20;22.50;96543.00;;;;5063511;28;20539;-85
2022/07/30 05:36:09;;;;;;;2.47;1.90;;;21.80;76.30;22.50;96551.00;;;;5039864;28;20262;-84
2022/07/30 05:38:38;;;;;;;2.37;1.70;;;21.80;76.40;22.60;96544.00;;;;5053242;28;20224;-85
2022/07/30 05:41:06;;;;;;;2.00;1.90;;;21.90;76.50;22.60;96549.00;;;;5052759;28;20200;-85
2022/07/30 05:43:33;;;;;;;1.93;1.80;;;21.90;76.50;22.70;96543.00;;;;5051404;28;20193;-84
2022/07/30 05:46:01;;;;;;;1.70;1.60;;;22.00;76.70;22.80;96550.00;;;;5051140;28;20668;-85
2022/07/30 05:48:30;;;;;;;2.37;1.60;;;22.00;76.80;22.80;96556.00;;;;5051361;28;20277;-84
2022/07/30 05:50:57;;;;;;;3.33;2.23;;;22.10;76.90;22.90;96550.00;;;;5054061;28;20871;-84
2022/07/30 05:53:24;;;;;;;3.20;2.00;;;22.10;76.50;23.00;96555.00;;;;5055261;28;20575;-84
2022/07/30 05:55:52;;;;;;;1.63;1.53;;;22.20;76.20;23.00;96560.00;;;;5053089;28;20700;-84
2022/07/30 05:58:20;;;;;;;2.67;1.90;;;22.30;76.10;23.10;96557.00;;;;5041511;28;20217;-83
2022/07/30 06:00:48;;;;;;;1.83;1.60;;;22.30;75.90;23.10;96560.00;;;;5042563;28;20206;-83
2022/07/30 06:03:15;;;;;;;1.97;1.87;;;22.40;75.80;23.20;96560.00;;;;5031385;28;20205;-84
2022/07/30 06:05:42;;;;;;;2.07;1.97;;;22.40;75.70;23.20;96562.00;;;;5049240;28;20199;-84
2022/07/30 06:08:10;;;;;;;2.57;1.60;;;22.50;76.30;23.30;96577.00;;;;5065026;28;20228;-84
2022/07/30 06:10:38;;;;;;;5.10;1.90;;;22.50;75.40;23.30;96572.00;;;;5051462;28;20315;-84
2022/07/30 06:13:05;;;;;;;2.13;1.80;;;22.60;75.30;23.40;96578.00;;;;5055194;28;20197;-85
2022/07/30 06:15:34;;;;;;;2.27;1.80;;;22.60;75.10;23.40;96579.00;;;;5053411;28;20680;-84
2022/07/30 06:18:01;;;;;;;3.00;1.60;;;22.70;74.70;23.40;96572.00;;;;5052446;28;20216;-84
2022/07/30 06:20:28;;;;;;;1.70;1.60;;;22.70;74.40;23.50;96572.00;;;;5055796;28;20200;-84
2022/07/30 06:22:55;;;;;;;2.00;1.90;;;22.80;74.40;23.50;96576.00;;;;5059029;28;20201;-84
2022/07/30 06:25:23;;;;;;;2.80;2.20;;;22.80;74.30;23.50;96582.00;;;;5054057;28;20193;-84
2022/07/30 06:27:50;;;;;;;5.13;2.50;;;22.80;74.20;23.60;96574.00;;;;5053014;28;20254;-85
2022/07/30 06:30:17;;;;;;;2.10;1.90;;;22.90;74.10;23.60;96584.00;;;;5046982;28;20273;-84
2022/07/30 06:32:46;;;;;;;2.00;1.90;;;22.90;73.70;23.60;96578.00;;;;5054576;28;20628;-84
2022/07/30 06:35:13;;;;;;;2.23;1.93;;;22.90;73.50;23.60;96586.00;;;;5068932;28;20669;-84
2022/07/30 06:37:41;;;;;;;2.17;2.07;;;22.90;73.60;23.60;96586.00;;;;5071593;28;20220;-84
2022/07/30 06:40:10;;;;;;;2.10;2.00;;;22.90;73.40;23.60;96590.00;;;;5080825;22;20227;-86
2022/07/30 06:42:37;;;;;;;2.23;2.13;;;23.00;73.40;23.70;96589.00;;;;5090841;28;20301;-88
2022/07/30 06:45:06;;;;;;;2.20;2.00;;;23.00;73.30;23.70;96596.00;;;;5101074;28;20194;-88
2022/07/30 06:47:34;;;;;;;2.10;1.90;;;23.00;73.20;23.70;96594.00;;;;5094447;28;20204;-88
2022/07/30 06:50:02;;;;;;;2.53;2.10;;;23.00;73.10;23.80;96600.00;;;;5093538;28;20261;-84
2022/07/30 06:52:30;;;;;;;2.13;2.03;;;23.00;73.10;23.80;96594.00;;;;5092135;28;20222;-85
2022/07/30 06:54:57;;;;;;;2.23;2.03;;;23.10;73.30;23.90;96604.00;;;;5094434;28;20274;-85
2022/07/30 06:57:24;;;;;;;2.13;1.90;;;23.10;73.60;24.00;96599.00;;;;5104638;28;20230;-85
2022/07/30 06:59:51;;;;;;;2.83;2.43;;;23.10;73.50;24.00;96602.00;;;;5096898;28;20201;-84
2022/07/30 07:02:18;;;;;;;2.27;2.17;;;23.20;73.40;24.10;96605.00;;;;5093142;28;20302;-85
2022/07/30 07:04:45;;;;;;;2.73;2.23;;;23.30;73.50;24.20;96607.00;;;;5096085;28;20234;-84
2022/07/30 07:07:14;;;;;;;2.67;2.47;;;23.30;73.20;24.20;96616.00;;;;5094584;28;20700;-85
2022/07/30 07:09:41;;;;;;;3.60;2.17;;;23.40;72.80;24.20;96613.00;;;;5093082;28;20213;-85
2022/07/30 07:12:09;;;;;;;2.13;2.00;;;23.40;72.40;24.30;96602.00;;;;5091475;28;20221;-85
2022/07/30 07:14:36;;;;;;;2.17;2.07;;;23.40;72.30;24.30;96608.00;;;;5097608;28;20282;-85
2022/07/30 07:17:03;;;;;;;2.27;2.17;;;23.50;72.40;24.40;96604.00;;;;5099438;28;20727;-85
2022/07/30 07:19:30;;;;;;;2.40;2.20;;;23.50;72.40;24.50;96602.00;;;;5094155;28;20291;-85
2022/07/30 07:21:58;;;;;;;2.07;1.90;;;23.60;72.30;24.60;96608.00;;;;5093883;28;20215;-84
2022/07/30 07:24:27;;;;;;;2.43;2.33;;;23.70;72.50;24.80;96609.00;;;;5082768;28;20202;-85
2022/07/30 07:26:54;;;;;;;2.67;2.30;;;23.80;72.30;24.90;96609.00;;;;5093273;28;20704;-84
2022/07/30 07:29:21;;;;;;;2.23;2.03;;;23.90;72.30;25.10;96605.00;;;;5094936;28;20321;-84
2022/07/30 07:31:48;;;;;;;2.30;2.10;;;24.00;72.40;25.20;96603.00;;;;5101936;28;20731;-85
2022/07/30 07:34:15;;;;;;;2.20;2.00;;;24.20;72.30;25.40;96610.00;;;;5091945;28;20233;-85
2022/07/30 07:36:43;;;;;;;2.30;2.20;;;24.30;71.80;25.50;96604.00;;;;5100486;28;20660;-84
2022/07/30 07:39:10;;;;;;;2.50;2.00;;;24.40;71.10;25.60;96602.00;;;;5108044;28;20226;-84
2022/07/30 07:41:38;;;;;;;2.50;1.90;;;24.50;70.30;25.80;96605.00;;;;5103762;28;20249;-84
2022/07/30 07:44:06;;;;;;;2.30;2.10;;;24.60;70.30;25.90;96605.00;;;;5093617;28;20222;-85
2022/07/30 07:46:34;;;;;;;2.20;2.00;;;24.80;70.20;26.00;96601.00;;;;5090910;28;20705;-84
2022/07/30 07:49:01;;;;;;;2.03;1.83;;;24.90;69.70;26.10;96607.00;;;;5102064;28;20226;-85
2022/07/30 07:51:28;;;;;;;2.47;2.27;;;25.00;69.60;26.20;96594.00;;;;5093255;28;20245;-85
2022/07/30 07:53:56;;;;;;;2.33;2.23;;;25.10;69.10;26.30;96600.00;;;;5096859;28;20205;-84
2022/07/30 07:56:23;;;;;;;2.47;2.27;;;25.20;68.70;26.40;96598.00;;;;5095397;28;20202;-84
2022/07/30 07:58:52;;;;;;;2.13;2.03;;;25.30;68.80;26.50;96589.00;;;;5094320;28;20298;-84
2022/07/30 08:01:21;;;;;;;2.33;2.13;;;25.40;68.90;26.60;96598.00;;;;5091881;28;20726;-84
2022/07/30 08:03:50;;;;;;;2.30;2.20;;;25.50;68.40;26.70;96597.00;;;;5099488;28;20558;-85
2022/07/30 08:06:17;;;;;;;2.83;2.27;;;25.60;67.70;26.80;96606.00;;;;5098171;28;20336;-84
2022/07/30 08:08:44;;;;;;;2.20;2.00;;;25.70;68.00;26.90;96611.00;;;;5097572;28;20253;-84
2022/07/30 08:11:15;;;;;;;2.47;2.30;;;25.80;67.70;27.10;96611.00;;;;5091908;28;20256;-85
2022/07/30 08:13:42;;;;;;;1.90;1.80;;;25.90;67.30;27.20;96611.00;;;;5092065;28;20252;-84
2022/07/30 08:16:13;;;;;;;2.40;2.30;;;26.00;66.80;27.30;96620.00;;;;5092846;28;20192;-85
2022/07/30 08:18:40;;;;;;;2.67;2.27;;;26.10;66.60;27.40;96615.00;;;;5091285;28;20264;-85
2022/07/30 08:21:07;;;;;;;2.00;1.90;;;26.20;65.70;27.50;96618.00;;;;5092542;28;20211;-84
2022/07/30 08:23:35;;;;;;;3.17;2.70;;;26.30;65.40;27.50;96614.00;;;;5092654;28;20214;-85
2022/07/30 08:26:02;;;;;;;2.70;2.50;;;26.40;65.60;27.60;96621.00;;;;5092162;28;20574;-84
2022/07/30 08:28:29;;;;;;;2.90;2.70;;;26.50;65.50;27.70;96621.00;;;;5100502;28;20237;-85
2022/07/30 08:30:56;;;;;;;2.10;2.00;;;26.50;64.60;27.80;96620.00;;;;5092896;28;20223;-85
2022/07/30 08:33:25;;;;;;;3.00;2.80;;;26.60;64.20;27.80;96628.00;;;;5089133;28;20257;-84
2022/07/30 08:35:52;;;;;;;2.50;2.30;;;26.70;63.60;27.90;96625.00;;;;5091619;28;20635;-85
2022/07/30 08:38:19;;;;;;;4.03;2.47;;;26.80;63.10;28.00;96620.00;;;;5087996;28;20202;-85
2022/07/30 08:40:47;;;;;;;2.60;2.40;;;26.80;63.20;28.10;96616.00;;;;5096911;28;20227;-85
2022/07/30 08:43:15;;;;;;;2.77;2.50;;;26.90;63.20;28.20;96623.00;;;;5084377;28;20327;-84
2022/07/30 08:45:44;;;;;;;2.83;2.03;;;27.00;63.20;28.30;96624.00;;;;5092966;28;20235;-84
2022/07/30 08:48:13;;;;;;;2.33;2.23;;;27.10;62.10;28.40;96612.00;;;;5092105;28;20207;-85
2022/07/30 08:50:45;;;;;;;2.33;2.17;;;27.10;62.00;28.50;96618.00;;;;5092913;28;20304;-84
2022/07/30 08:53:13;;;;;;;2.97;2.07;;;27.30;60.90;28.70;96633.00;;;;5092427;28;20195;-85
2022/07/30 08:55:44;;;;;;;2.20;2.10;;;27.30;61.20;28.80;96618.00;;;;5098499;28;20292;-85
2022/07/30 08:58:27;;;;;;;3.53;2.57;;;27.50;61.10;28.90;96625.00;;;;5090735;28;20223;-85
2022/07/30 09:00:54;;;;;;;2.47;2.20;;;27.60;60.40;29.10;96626.00;;;;5104616;28;20242;-85
2022/07/30 09:03:21;;;;;;;4.07;1.88;;;27.70;61.00;29.20;96627.00;;;;5095264;28;20226;-85
2022/07/30 09:05:50;;;;;;;2.92;2.28;;;27.80;60.50;29.40;96626.00;;;;5098039;28;20708;-85
2022/07/30 09:08:18;;;;;;;2.33;2.17;;;28.00;60.00;29.60;96624.00;;;;5093687;28;20619;-85
2022/07/30 09:10:47;;;;;;;2.42;2.28;;;28.10;59.50;29.70;96630.00;;;;5084398;28;20231;-84
2022/07/30 09:13:26;;;;;;;3.53;2.00;;;28.20;59.20;29.80;96630.00;;;;5081968;28;20215;-84
2022/07/30 09:15:54;;;;;;;2.10;1.95;;;28.30;58.50;29.90;96635.00;;;;5086681;28;20272;-86
2022/07/30 09:18:34;;;;;;;2.40;2.20;;;28.40;58.20;30.00;96638.00;;;;5088400;28;20222;-85
2022/07/30 09:21:17;;;;;;;2.38;2.10;;;28.60;57.10;30.20;96636.00;;;;5086809;28;20298;-86
2022/07/30 09:23:57;;;;;;;2.13;1.95;;;28.70;56.20;30.30;96629.00;;;;5084449;28;20230;-85
2022/07/30 09:26:24;;;;;;;4.60;2.40;;;28.80;56.50;30.30;96634.00;;;;5083074;28;20242;-86
2022/07/30 09:28:52;;;;;;;2.35;1.75;;;28.90;56.50;30.40;96636.00;;;;5083403;28;20949;-86
2022/07/30 09:31:22;;;;;;;1.98;1.80;;;29.00;56.10;30.50;96631.00;;;;5086153;28;20249;-86
2022/07/30 09:33:49;;;;;;;2.10;2.00;;;29.00;56.30;30.60;96628.00;;;;5085341;28;20282;-85
2022/07/30 09:36:18;;;;;;;1.90;1.77;;;29.20;56.20;30.80;96635.00;;;;5082302;28;20223;-86
2022/07/30 09:38:50;;;;;;;2.05;1.80;;;29.30;56.00;31.00;96635.00;;;;5086190;28;20258;-86
2022/07/30 09:41:21;;;;;;;1.67;1.58;;;29.40;55.70;31.20;96623.00;;;;5086605;28;20249;-86
2022/07/30 09:43:50;;;;;;;2.05;1.92;;;29.60;55.30;31.30;96632.00;;;;5092997;28;20256;-85
2022/07/30 09:46:18;;;;;;;1.55;1.45;;;29.70;54.70;31.50;96637.00;;;;5084599;28;20334;-86
2022/07/30 09:48:46;;;;;;;2.08;1.58;;;29.80;54.70;31.60;96631.00;;;;5083646;28;20231;-85
2022/07/30 09:51:14;;;;;;;1.80;1.67;;;29.90;54.20;31.70;96633.00;;;;5076241;28;20223;-84
2022/07/30 09:53:57;;;;;;;1.58;1.50;;;30.00;54.40;31.80;96636.00;;;;5097996;28;20226;-85
2022/07/30 09:56:26;;;;;;;2.15;1.60;;;30.10;53.20;31.90;96628.00;;;;5093363;28;20203;-85
2022/07/30 09:58:54;;;;;;;1.60;1.50;;;30.20;54.30;32.20;96638.00;;;;5102672;28;20226;-86
2022/07/30 10:01:22;;;;;;;1.70;1.60;;;30.40;54.10;32.30;96635.00;;;;5096422;28;20261;-85
2022/07/30 10:03:49;;;;;;;1.70;1.60;;;30.50;53.50;32.30;96637.00;;;;5096532;28;20223;-85
2022/07/30 10:06:19;;;;;;;3.05;1.48;;;30.60;52.60;32.30;96638.00;;;;5095075;28;20196;-86
2022/07/30 10:08:49;;;;;;;1.48;1.38;;;30.70;52.50;32.30;96637.00;;;;5081498;28;20199;-86
2022/07/30 10:11:21;;;;;;;1.83;1.50;;;30.70;52.10;32.20;96633.00;;;;5086217;28;20599;-86
2022/07/30 10:13:53;;;;;;;1.42;1.33;;;30.80;51.70;32.30;96626.00;;;;5092036;28;20242;-86
2022/07/30 10:16:21;;;;;;;1.65;1.45;;;30.80;51.10;32.10;96627.00;;;;5091193;28;20191;-85
2022/07/30 10:18:48;;;;;;;1.58;1.48;;;30.90;51.10;32.00;96631.00;;;;5092376;28;20195;-86
2022/07/30 10:21:16;;;;;;;2.45;1.60;;;30.90;50.70;31.90;96637.00;;;;5088119;28;20243;-86
2022/07/30 10:23:44;;;;;;;2.13;1.33;;;30.80;50.80;31.80;96635.00;;;;5090622;28;20207;-86
2022/07/30 10:26:11;;;;;;;1.75;1.50;;;30.70;50.40;31.60;96634.00;;;;5087415;28;20272;-86
2022/07/30 10:28:42;;;;;;;1.92;1.42;;;30.60;49.70;31.40;96631.00;;;;5089220;28;20227;-85
2022/07/30 10:31:09;;;;;;;1.60;1.50;;;30.60;49.30;31.20;96640.00;;;;5091039;28;20230;-86
2022/07/30 10:33:38;;;;;;;1.52;1.40;;;30.40;49.40;31.10;96627.00;;;;5085717;28;20278;-85
2022/07/30 10:36:05;;;;;;;3.45;1.60;;;30.30;50.00;31.00;96638.00;;;;5088774;28;20242;-85
2022/07/30 10:38:39;;;;;;;1.77;1.63;;;30.20;49.50;30.80;96636.00;;;;5090218;28;20657;-85
2022/07/30 10:41:23;;;;;;;1.45;1.30;;;30.00;49.20;30.70;96625.00;;;;5091471;28;20654;-85
2022/07/30 10:44:24;;;;;;;1.20;1.10;;;29.90;48.10;30.50;96619.00;;;;5088982;28;20252;-84
2022/07/30 10:47:02;;;;;;;2.38;2.05;;;29.80;47.80;30.40;96626.00;;;;5084745;28;20231;-86
2022/07/30 10:49:30;;;;;;;1.60;1.50;;;29.70;48.30;30.30;96622.00;;;;5089201;28;20191;-85
2022/07/30 10:51:57;;;;;;;1.40;1.30;;;29.60;48.70;30.20;96627.00;;;;5093008;28;20215;-86
2022/07/30 10:54:46;;;;;;;1.35;1.25;;;29.50;48.90;30.20;96626.00;;;;5092408;28;20227;-85
2022/07/30 10:57:16;;;;;;;1.50;1.40;;;29.50;48.50;30.20;96623.00;;;;5090356;28;20192;-86
2022/07/30 11:00:13;;;;;;;1.33;1.23;;;29.40;48.80;30.10;96614.00;;;;5096007;28;20671;-86
2022/07/30 11:03:15;;;;;;;1.90;1.08;;;29.40;47.90;30.00;96618.00;;;;5104235;28;20206;-86
2022/07/30 11:05:44;;;;;;;1.20;1.10;;;29.30;49.00;29.80;96609.00;;;;5109227;28;20278;-85